createdAt,value
2023-02-09T00:01:29.928Z,-5.55
2023-02-09T00:04:00.863Z,-5.47
2023-02-09T00:06:30.406Z,-5.38
2023-02-09T00:08:58.608Z,-5.24
2023-02-09T00:11:47.459Z,-5.37
2023-02-09T00:14:18.604Z,-5.22
2023-02-09T00:16:47.683Z,-5.28
2023-02-09T00:19:15.278Z,-5.31
2023-02-09T00:21:42.743Z,-5.40
2023-02-09T00:24:10.934Z,-5.44
2023-02-09T00:26:38.980Z,-5.48
2023-02-09T00:29:07.799Z,-5.50
2023-02-09T00:31:36.162Z,-5.51
2023-02-09T00:34:05.127Z,-5.56
2023-02-09T00:36:32.720Z,-5.68
2023-02-09T00:39:00.330Z,-5.70
2023-02-09T00:41:46.508Z,-5.80
2023-02-09T00:44:13.628Z,-5.85
2023-02-09T00:46:41.036Z,-5.85
2023-02-09T00:49:08.203Z,-5.88
2023-02-09T00:51:35.785Z,-5.94
2023-02-09T00:54:03.879Z,-6.01
2023-02-09T00:56:31.411Z,-6.06
2023-02-09T00:59:00.190Z,-6.15
2023-02-09T01:01:27.834Z,-6.32
2023-02-09T01:03:55.183Z,-6.36
2023-02-09T01:06:22.994Z,-6.47
2023-02-09T01:08:51.076Z,-6.49
2023-02-09T01:11:19.263Z,-6.55
2023-02-09T01:13:46.634Z,-6.71
2023-02-09T01:16:16.903Z,-6.82
2023-02-09T01:18:45.458Z,-6.89
2023-02-09T01:21:15.255Z,-6.95
2023-02-09T01:23:42.547Z,-7.00
2023-02-09T01:26:12.092Z,-6.99
2023-02-09T01:28:39.750Z,-6.95
2023-02-09T01:31:19.077Z,-6.97
2023-02-09T01:33:46.504Z,-6.93
2023-02-09T01:36:14.105Z,-6.90
2023-02-09T01:38:41.231Z,-6.85
2023-02-09T01:41:09.715Z,-6.81
2023-02-09T01:43:57.447Z,-6.88
2023-02-09T01:46:30.660Z,-6.71
2023-02-09T01:49:20.897Z,-6.52
2023-02-09T01:52:09.949Z,-6.42
2023-02-09T01:54:48.032Z,-6.36
2023-02-09T01:57:18.647Z,-6.23
2023-02-09T01:59:50.206Z,-6.07
2023-02-09T02:02:17.892Z,-5.90
2023-02-09T02:04:45.407Z,-5.83
2023-02-09T02:07:19.585Z,-5.73
2023-02-09T02:09:46.708Z,-5.65
2023-02-09T02:12:14.627Z,-5.62
2023-02-09T02:14:41.802Z,-5.51
2023-02-09T02:17:28.042Z,-5.43
2023-02-09T02:20:19.792Z,-5.42
2023-02-09T02:23:07.210Z,-5.40
2023-02-09T02:25:46.757Z,-5.29
2023-02-09T02:28:20.300Z,-5.24
2023-02-09T02:31:06.439Z,-5.21
2023-02-09T02:33:48.626Z,-5.25
2023-02-09T02:36:36.282Z,-5.17
2023-02-09T02:39:27.851Z,-5.13
2023-02-09T02:42:42.947Z,-5.24
2023-02-09T02:45:48.827Z,-5.07
2023-02-09T02:48:19.123Z,-5.10
2023-02-09T02:51:35.823Z,-5.10
2023-02-09T02:54:06.400Z,-5.07
2023-02-09T02:56:37.707Z,-5.07
2023-02-09T02:59:08.534Z,-5.06
2023-02-09T03:01:41.738Z,-5.05
2023-02-09T03:04:08.778Z,-5.01
2023-02-09T03:06:37.708Z,-5.05
2023-02-09T03:09:05.681Z,-5.06
2023-02-09T03:11:39.873Z,-5.05
2023-02-09T03:14:09.612Z,-5.01
2023-02-09T03:16:45.160Z,-5.04
2023-02-09T03:19:31.383Z,-5.05
2023-02-09T03:22:22.035Z,-5.05
2023-02-09T03:24:55.107Z,-5.05
2023-02-09T03:27:25.967Z,-5.03
2023-02-09T03:29:56.220Z,-5.04
2023-02-09T03:32:25.030Z,-5.04
2023-02-09T03:34:53.019Z,-5.02
2023-02-09T03:37:20.917Z,-5.02
2023-02-09T03:39:48.136Z,-5.01
2023-02-09T03:42:15.663Z,-4.99
2023-02-09T03:44:42.756Z,-4.99
2023-02-09T03:47:10.641Z,-5.03
2023-02-09T03:49:40.496Z,-4.98
2023-02-09T03:52:10.976Z,-4.95
2023-02-09T03:54:38.611Z,-4.92
2023-02-09T03:57:07.172Z,-4.98
2023-02-09T03:59:40.307Z,-5.00
2023-02-09T04:02:09.698Z,-4.98
2023-02-09T04:04:37.288Z,-4.94
2023-02-09T04:07:05.300Z,-5.00
2023-02-09T04:09:32.646Z,-5.03
2023-02-09T04:12:00.189Z,-5.06
2023-02-09T04:14:27.378Z,-5.11
2023-02-09T04:16:55.069Z,-5.08
2023-02-09T04:19:22.378Z,-5.14
2023-02-09T04:21:50.019Z,-5.08
2023-02-09T04:24:26.412Z,-5.12
2023-02-09T04:26:54.006Z,-5.13
2023-02-09T04:29:21.407Z,-5.17
2023-02-09T04:31:49.013Z,-5.20
2023-02-09T04:34:16.310Z,-5.18
2023-02-09T04:36:44.283Z,-5.20
2023-02-09T04:39:11.665Z,-5.22
2023-02-09T04:41:39.207Z,-5.29
2023-02-09T04:44:06.598Z,-5.27
2023-02-09T04:46:34.408Z,-5.34
2023-02-09T04:49:01.625Z,-5.34
2023-02-09T04:51:29.335Z,-5.34
2023-02-09T04:53:56.488Z,-5.33
2023-02-09T04:56:24.307Z,-5.36
2023-02-09T04:59:09.911Z,-5.43
2023-02-09T05:01:37.501Z,-5.52
2023-02-09T05:04:04.735Z,-5.70
2023-02-09T05:06:32.188Z,-5.66
2023-02-09T05:08:59.478Z,-5.65
2023-02-09T05:11:27.499Z,-5.69
2023-02-09T05:13:55.793Z,-5.73
2023-02-09T05:16:23.724Z,-5.79
2023-02-09T05:18:51.223Z,-5.81
2023-02-09T05:21:18.927Z,-5.81
2023-02-09T05:23:47.164Z,-5.71
2023-02-09T05:26:14.957Z,-5.81
2023-02-09T05:28:42.375Z,-5.81
2023-02-09T05:31:10.180Z,-5.86
2023-02-09T05:33:37.555Z,-5.94
2023-02-09T05:36:09.677Z,-6.02
2023-02-09T05:38:37.202Z,-6.08
2023-02-09T05:41:32.272Z,-6.19
2023-02-09T05:43:59.655Z,-6.29
2023-02-09T05:46:27.475Z,-6.30
2023-02-09T05:48:54.880Z,-6.37
2023-02-09T05:51:22.403Z,-6.38
2023-02-09T05:53:49.625Z,-6.39
2023-02-09T05:56:17.184Z,-6.38
2023-02-09T05:58:44.482Z,-6.42
2023-02-09T06:01:12.217Z,-6.41
2023-02-09T06:03:39.698Z,-6.46
2023-02-09T06:06:07.595Z,-6.34
2023-02-09T06:08:34.981Z,-6.33
2023-02-09T06:11:04.198Z,-6.33
2023-02-09T06:13:31.649Z,-6.49
2023-02-09T06:15:59.278Z,-6.35
2023-02-09T06:18:26.585Z,-6.41
2023-02-09T06:20:54.582Z,-6.49
2023-02-09T06:23:21.834Z,-6.55
2023-02-09T06:25:53.257Z,-6.58
2023-02-09T06:28:21.647Z,-6.61
2023-02-09T06:30:51.539Z,-6.58
2023-02-09T06:33:20.014Z,-6.55
2023-02-09T06:35:47.778Z,-6.55
2023-02-09T06:38:15.309Z,-6.52
2023-02-09T06:40:43.306Z,-6.46
2023-02-09T06:43:10.655Z,-6.44
2023-02-09T06:45:39.570Z,-6.47
2023-02-09T06:48:07.830Z,-6.47
2023-02-09T06:50:37.087Z,-6.35
2023-02-09T06:53:05.435Z,-6.36
2023-02-09T06:55:33.807Z,-6.26
2023-02-09T06:58:01.166Z,-6.20
2023-02-09T07:00:29.001Z,-6.12
2023-02-09T07:02:56.130Z,-6.11
2023-02-09T07:05:24.120Z,-6.06
2023-02-09T07:07:51.460Z,-5.91
2023-02-09T07:10:19.728Z,-5.79
2023-02-09T07:12:47.079Z,-5.80
2023-02-09T07:15:15.389Z,-5.64
2023-02-09T07:17:42.832Z,-5.52
2023-02-09T07:20:10.957Z,-5.37
2023-02-09T07:22:38.519Z,-5.27
2023-02-09T07:25:06.444Z,-5.24
2023-02-09T07:27:33.894Z,-5.13
2023-02-09T07:30:01.558Z,-5.09
2023-02-09T07:32:28.838Z,-5.00
2023-02-09T07:34:56.516Z,-5.01
2023-02-09T07:37:23.727Z,-4.95
2023-02-09T07:39:51.358Z,-4.90
2023-02-09T07:42:18.661Z,-4.75
2023-02-09T07:44:51.086Z,-4.70
2023-02-09T07:47:18.547Z,-4.44
2023-02-09T07:49:46.300Z,-4.21
2023-02-09T07:52:13.632Z,-4.06
2023-02-09T07:54:41.332Z,-3.92
2023-02-09T07:57:08.699Z,-3.73
2023-02-09T07:59:36.509Z,-3.55
2023-02-09T08:02:04.849Z,-3.34
2023-02-09T08:04:32.613Z,-3.24
2023-02-09T08:07:00.659Z,-3.14
2023-02-09T08:09:29.322Z,-2.95
2023-02-09T08:11:59.548Z,-2.87
2023-02-09T08:14:31.089Z,-2.88
2023-02-09T08:17:23.050Z,-2.61
2023-02-09T08:19:54.634Z,-2.47
2023-02-09T08:22:23.944Z,-2.35
2023-02-09T08:24:51.776Z,-2.23
2023-02-09T08:27:18.971Z,-1.93
2023-02-09T08:29:48.851Z,-1.80
2023-02-09T08:32:16.470Z,-1.57
2023-02-09T08:34:44.094Z,-1.58
2023-02-09T08:37:11.316Z,-1.47
2023-02-09T08:39:38.947Z,-1.56
2023-02-09T08:42:06.420Z,-1.58
2023-02-09T08:44:34.011Z,-1.41
2023-02-09T08:47:01.990Z,-1.13
2023-02-09T08:49:29.954Z,-0.91
2023-02-09T08:51:57.461Z,-0.58
2023-02-09T08:54:25.611Z,-0.36
2023-02-09T08:56:53.112Z,-0.12
2023-02-09T08:59:22.133Z,0.04
2023-02-09T09:01:49.691Z,0.12
2023-02-09T09:04:17.818Z,0.28
2023-02-09T09:06:45.344Z,0.36
2023-02-09T09:09:13.517Z,0.34
2023-02-09T09:11:41.361Z,0.25
2023-02-09T09:14:09.116Z,0.59
2023-02-09T09:16:36.572Z,0.99
2023-02-09T09:19:05.255Z,1.36
2023-02-09T09:21:33.672Z,1.79
2023-02-09T09:24:01.355Z,2.20
2023-02-09T09:26:28.764Z,2.75
2023-02-09T09:28:56.380Z,3.31
2023-02-09T09:31:23.742Z,3.25
2023-02-09T09:33:51.604Z,3.37
2023-02-09T09:36:20.757Z,3.50
2023-02-09T09:38:48.395Z,3.73
2023-02-09T09:41:28.982Z,4.27
2023-02-09T09:43:56.966Z,4.69
2023-02-09T09:46:42.207Z,4.68
2023-02-09T09:49:19.868Z,4.31
2023-02-09T09:51:49.712Z,4.31
2023-02-09T09:54:24.062Z,3.41
2023-02-09T09:56:52.829Z,3.09
2023-02-09T09:59:23.721Z,2.37
2023-02-09T10:01:52.732Z,2.15
2023-02-09T10:04:21.224Z,2.07
2023-02-09T10:06:57.780Z,1.79
2023-02-09T10:09:38.825Z,1.66
2023-02-09T10:12:25.095Z,1.69
2023-02-09T10:14:52.957Z,1.48
2023-02-09T10:17:20.294Z,1.35
2023-02-09T10:20:07.751Z,1.63
2023-02-09T10:22:35.226Z,1.57
2023-02-09T10:25:04.041Z,1.51
2023-02-09T10:27:31.644Z,1.72
2023-02-09T10:30:19.031Z,1.71
2023-02-09T10:32:46.575Z,1.65
2023-02-09T10:35:28.919Z,1.70
2023-02-09T10:38:01.814Z,1.69
2023-02-09T10:40:32.415Z,1.65
2023-02-09T10:43:02.098Z,1.66
2023-02-09T10:45:44.831Z,1.67
2023-02-09T10:48:12.252Z,1.73
2023-02-09T10:51:00.118Z,1.71
2023-02-09T10:53:36.715Z,1.68
2023-02-09T10:56:09.987Z,1.58
2023-02-09T10:58:37.443Z,1.67
2023-02-09T11:01:20.351Z,1.75
2023-02-09T11:04:06.106Z,1.68
2023-02-09T11:06:52.832Z,1.53
2023-02-09T11:09:35.236Z,1.55
2023-02-09T11:12:03.344Z,1.67
2023-02-09T11:14:30.782Z,1.71
2023-02-09T11:17:04.485Z,1.77
2023-02-09T11:19:54.286Z,1.96
2023-02-09T11:22:54.803Z,2.04
2023-02-09T11:25:33.509Z,2.03
2023-02-09T11:28:39.095Z,2.06
2023-02-09T11:31:25.126Z,2.14
2023-02-09T11:33:59.130Z,2.21
2023-02-09T11:36:26.262Z,2.26
2023-02-09T11:39:10.079Z,2.27
2023-02-09T11:42:03.844Z,2.35
2023-02-09T11:44:44.217Z,2.39
2023-02-09T11:47:16.109Z,2.30
2023-02-09T11:49:49.724Z,2.16
2023-02-09T11:52:24.430Z,2.11
2023-02-09T11:54:54.877Z,1.96
2023-02-09T11:57:34.049Z,1.87
2023-02-09T12:00:05.376Z,1.89
2023-02-09T12:02:33.371Z,1.87
2023-02-09T12:05:02.221Z,1.82
2023-02-09T12:07:51.330Z,1.76
2023-02-09T12:10:28.644Z,1.67
2023-02-09T12:13:09.074Z,1.54
2023-02-09T12:15:45.847Z,1.46
2023-02-09T12:18:19.072Z,1.43
2023-02-09T12:20:54.151Z,1.46
2023-02-09T12:23:38.567Z,1.48
2023-02-09T12:26:39.371Z,1.53
2023-02-09T12:29:36.408Z,1.61
2023-02-09T12:32:04.179Z,1.66
2023-02-09T12:34:51.368Z,1.59
2023-02-09T12:37:30.590Z,1.67
2023-02-09T12:40:07.051Z,1.73
2023-02-09T12:42:43.502Z,1.81
2023-02-09T12:45:32.058Z,1.93
2023-02-09T12:48:11.491Z,2.04
2023-02-09T12:50:57.643Z,2.03
2023-02-09T12:53:26.508Z,2.05
2023-02-09T12:56:10.823Z,2.05
2023-02-09T12:58:44.714Z,1.94
2023-02-09T13:01:14.211Z,1.97
2023-02-09T13:03:51.013Z,1.93
2023-02-09T13:06:29.866Z,1.93
2023-02-09T13:08:59.902Z,2.02
2023-02-09T13:11:31.470Z,2.03
2023-02-09T13:14:03.985Z,2.00
2023-02-09T13:16:50.123Z,1.96
2023-02-09T13:19:48.591Z,1.94
2023-02-09T13:22:28.540Z,2.10
2023-02-09T13:25:34.263Z,2.10
2023-02-09T13:28:15.920Z,2.13
2023-02-09T13:30:44.267Z,2.01
2023-02-09T13:33:48.447Z,2.09
2023-02-09T13:36:37.176Z,2.05
2023-02-09T13:39:08.023Z,1.98
2023-02-09T13:41:40.977Z,1.95
2023-02-09T13:44:28.291Z,1.98
2023-02-09T13:46:58.530Z,2.01
2023-02-09T13:49:27.540Z,2.02
2023-02-09T13:52:14.874Z,2.16
2023-02-09T13:54:43.271Z,2.14
2023-02-09T13:57:46.720Z,2.09
2023-02-09T14:00:21.167Z,2.10
2023-02-09T14:03:01.877Z,2.06
2023-02-09T14:05:41.909Z,2.02
2023-02-09T14:08:12.805Z,1.94
2023-02-09T14:10:42.958Z,1.92
2023-02-09T14:13:22.337Z,1.88
2023-02-09T14:16:10.497Z,1.81
2023-02-09T14:18:46.887Z,1.76
2023-02-09T14:21:29.854Z,1.75
2023-02-09T14:23:58.234Z,1.77
2023-02-09T14:26:28.014Z,1.74
2023-02-09T14:29:19.578Z,1.63
2023-02-09T14:31:49.627Z,1.57
2023-02-09T14:34:23.723Z,1.53
2023-02-09T14:36:52.976Z,1.53
2023-02-09T14:39:21.469Z,1.55
2023-02-09T14:42:11.107Z,1.47
2023-02-09T14:45:13.802Z,1.39
2023-02-09T14:47:44.185Z,1.47
2023-02-09T14:50:24.044Z,1.43
2023-02-09T14:52:54.300Z,1.43
2023-02-09T14:55:26.388Z,1.36
2023-02-09T14:57:54.014Z,1.34
2023-02-09T15:00:23.060Z,1.30
2023-02-09T15:02:51.976Z,1.29
2023-02-09T15:05:21.981Z,1.24
2023-02-09T15:07:52.973Z,1.16
2023-02-09T15:10:28.488Z,1.09
2023-02-09T15:12:56.817Z,1.03
2023-02-09T15:15:25.380Z,1.02
2023-02-09T15:17:55.310Z,0.96
2023-02-09T15:20:25.370Z,0.86
2023-02-09T15:22:53.827Z,0.81
2023-02-09T15:25:23.146Z,0.80
2023-02-09T15:27:55.811Z,0.84
2023-02-09T15:30:38.279Z,0.77
2023-02-09T15:33:06.646Z,0.70
2023-02-09T15:35:34.830Z,0.72
2023-02-09T15:38:02.719Z,0.61
2023-02-09T15:41:15.693Z,0.54
2023-02-09T15:44:01.870Z,0.47
2023-02-09T15:46:48.005Z,0.42
2023-02-09T15:49:15.459Z,0.42
2023-02-09T15:51:43.238Z,0.41
2023-02-09T15:54:19.582Z,0.33
2023-02-09T15:56:48.188Z,0.26
2023-02-09T15:59:20.344Z,0.24
2023-02-09T16:01:48.726Z,0.17
2023-02-09T16:04:16.481Z,0.10
2023-02-09T16:06:47.657Z,0.15
2023-02-09T16:09:29.515Z,0.07
2023-02-09T16:11:58.070Z,-0.01
2023-02-09T16:14:26.532Z,-0.09
2023-02-09T16:16:54.301Z,-0.12
2023-02-09T16:19:21.879Z,-0.05
2023-02-09T16:21:52.202Z,-0.10
2023-02-09T16:24:36.887Z,-0.11
2023-02-09T16:27:14.455Z,-0.20
2023-02-09T16:29:42.374Z,-0.19
2023-02-09T16:32:16.116Z,-0.23
2023-02-09T16:34:44.392Z,-0.29
2023-02-09T16:37:16.496Z,-0.39
2023-02-09T16:39:44.265Z,-0.42
2023-02-09T16:42:13.509Z,-0.46
2023-02-09T16:44:41.093Z,-0.45
2023-02-09T16:47:25.919Z,-0.48
2023-02-09T16:49:59.398Z,-0.49
2023-02-09T16:52:30.277Z,-0.47
2023-02-09T16:55:00.221Z,-0.47
2023-02-09T16:57:28.742Z,-0.45
2023-02-09T16:59:56.121Z,-0.43
2023-02-09T17:02:23.940Z,-0.49
2023-02-09T17:04:51.412Z,-0.40
2023-02-09T17:07:18.974Z,-0.46
2023-02-09T17:09:46.416Z,-0.45
2023-02-09T17:12:14.389Z,-0.42
2023-02-09T17:14:41.751Z,-0.48
2023-02-09T17:17:12.703Z,-0.45
2023-02-09T17:19:47.792Z,-0.37
2023-02-09T17:22:16.412Z,-0.38
2023-02-09T17:24:43.752Z,-0.40
2023-02-09T17:27:11.399Z,-0.39
2023-02-09T17:29:38.773Z,-0.39
2023-02-09T17:32:06.643Z,-0.40
2023-02-09T17:34:34.004Z,-0.45
2023-02-09T17:37:01.611Z,-0.46
2023-02-09T17:39:30.774Z,-0.52
2023-02-09T17:41:59.727Z,-0.57
2023-02-09T17:44:45.021Z,-0.57
2023-02-09T17:47:18.255Z,-0.55
2023-02-09T17:49:45.721Z,-0.60
2023-02-09T17:52:18.095Z,-0.63
2023-02-09T17:54:45.983Z,-0.66
2023-02-09T17:57:15.225Z,-0.72
2023-02-09T17:59:42.862Z,-0.71
2023-02-09T18:02:16.183Z,-0.72
2023-02-09T18:04:44.446Z,-0.75
2023-02-09T18:07:13.928Z,-0.75
2023-02-09T18:09:41.094Z,-0.82
2023-02-09T18:12:14.280Z,-0.73
2023-02-09T18:14:41.642Z,-0.77
2023-02-09T18:17:09.256Z,-0.78
2023-02-09T18:19:36.832Z,-0.80
2023-02-09T18:22:04.764Z,-0.81
2023-02-09T18:24:34.534Z,-0.76
2023-02-09T18:27:02.452Z,-0.81
2023-02-09T18:29:30.248Z,-0.79
2023-02-09T18:31:59.554Z,-0.73
2023-02-09T18:34:27.160Z,-0.72
2023-02-09T18:36:55.289Z,-0.76
2023-02-09T18:39:22.997Z,-0.80
2023-02-09T18:41:56.688Z,-0.77
2023-02-09T18:44:29.384Z,-0.77
2023-02-09T18:47:00.645Z,-0.84
2023-02-09T18:49:29.061Z,-0.74
2023-02-09T18:51:58.938Z,-0.74
2023-02-09T18:54:28.513Z,-0.77
2023-02-09T18:56:56.575Z,-0.78
2023-02-09T18:59:28.162Z,-0.82
2023-02-09T19:01:56.056Z,-0.79
2023-02-09T19:04:25.140Z,-0.83
2023-02-09T19:06:52.882Z,-0.81
2023-02-09T19:09:20.597Z,-0.85
2023-02-09T19:11:48.275Z,-0.85
2023-02-09T19:14:34.456Z,-0.86
2023-02-09T19:17:02.240Z,-0.88
2023-02-09T19:19:29.498Z,-0.94
2023-02-09T19:21:58.094Z,-1.00
2023-02-09T19:24:25.308Z,-0.95
2023-02-09T19:26:52.823Z,-1.02
2023-02-09T19:29:20.226Z,-1.06
2023-02-09T19:31:48.769Z,-1.09
2023-02-09T19:34:16.073Z,-1.15
2023-02-09T19:36:44.054Z,-1.19
2023-02-09T19:39:12.383Z,-1.19
2023-02-09T19:41:40.596Z,-1.17
2023-02-09T19:44:07.760Z,-1.16
2023-02-09T19:46:35.820Z,-1.20
2023-02-09T19:49:03.364Z,-1.19
2023-02-09T19:51:31.188Z,-1.18
2023-02-09T19:53:58.611Z,-1.23
2023-02-09T19:56:26.440Z,-1.20
2023-02-09T19:58:53.682Z,-1.24
2023-02-09T20:01:21.859Z,-1.34
2023-02-09T20:03:49.866Z,-1.35
2023-02-09T20:06:17.891Z,-1.38
2023-02-09T20:08:45.484Z,-1.33
2023-02-09T20:11:17.543Z,-1.34
2023-02-09T20:13:45.550Z,-1.39
2023-02-09T20:16:22.279Z,-1.42
2023-02-09T20:18:50.332Z,-1.40
2023-02-09T20:21:20.271Z,-1.37
2023-02-09T20:23:48.314Z,-1.32
2023-02-09T20:26:21.769Z,-1.35
2023-02-09T20:28:49.653Z,-1.35
2023-02-09T20:31:23.597Z,-1.35
2023-02-09T20:33:51.007Z,-1.37
2023-02-09T20:36:19.435Z,-1.37
2023-02-09T20:38:47.405Z,-1.30
2023-02-09T20:41:16.892Z,-1.36
2023-02-09T20:44:03.426Z,-1.37
2023-02-09T20:46:51.385Z,-1.31
2023-02-09T20:49:19.209Z,-1.35
2023-02-09T20:51:47.165Z,-1.41
2023-02-09T20:54:14.885Z,-1.41
2023-02-09T20:56:42.949Z,-1.35
2023-02-09T20:59:11.428Z,-1.33
2023-02-09T21:01:39.934Z,-1.33
2023-02-09T21:04:07.853Z,-1.30
2023-02-09T21:06:38.790Z,-1.22
2023-02-09T21:09:08.009Z,-1.19
2023-02-09T21:11:35.862Z,-1.15
2023-02-09T21:14:03.167Z,-1.12
2023-02-09T21:16:31.538Z,-1.12
2023-02-09T21:18:59.308Z,-1.12
2023-02-09T21:21:27.776Z,-1.09
2023-02-09T21:23:55.201Z,-1.13
2023-02-09T21:26:24.663Z,-1.14
2023-02-09T21:28:56.702Z,-1.13
2023-02-09T21:31:27.126Z,-1.20
2023-02-09T21:33:54.614Z,-1.14
2023-02-09T21:36:22.459Z,-1.19
2023-02-09T21:38:49.856Z,-1.25
2023-02-09T21:41:41.067Z,-1.16
2023-02-09T21:44:10.217Z,-1.18
2023-02-09T21:46:38.267Z,-1.23
2023-02-09T21:49:05.950Z,-1.22
2023-02-09T21:51:34.454Z,-1.22
2023-02-09T21:54:01.896Z,-1.23
2023-02-09T21:56:29.756Z,-1.26
2023-02-09T21:58:57.979Z,-1.25
2023-02-09T22:01:25.994Z,-1.36
2023-02-09T22:03:57.429Z,-1.37
2023-02-09T22:06:26.165Z,-1.30
2023-02-09T22:08:53.700Z,-1.35
2023-02-09T22:11:21.384Z,-1.41
2023-02-09T22:13:48.621Z,-1.39
2023-02-09T22:16:19.427Z,-1.43
2023-02-09T22:18:46.958Z,-1.45
2023-02-09T22:21:14.465Z,-1.50
2023-02-09T22:23:41.965Z,-1.52
2023-02-09T22:26:09.734Z,-1.52
2023-02-09T22:28:37.110Z,-1.55
2023-02-09T22:31:09.926Z,-1.57
2023-02-09T22:33:37.246Z,-1.59
2023-02-09T22:36:11.054Z,-1.62
2023-02-09T22:38:38.431Z,-1.61
2023-02-09T22:41:07.952Z,-1.61
2023-02-09T22:43:35.610Z,-1.66
2023-02-09T22:46:03.309Z,-1.74
2023-02-09T22:48:30.591Z,-1.69
2023-02-09T22:50:58.066Z,-1.65
2023-02-09T22:53:25.447Z,-1.71
2023-02-09T22:55:53.141Z,-1.69
2023-02-09T22:58:20.524Z,-1.74
2023-02-09T23:00:48.162Z,-1.73
2023-02-09T23:03:15.516Z,-1.79
2023-02-09T23:05:43.061Z,-1.81
2023-02-09T23:08:10.328Z,-1.80
2023-02-09T23:10:38.063Z,-1.85
2023-02-09T23:13:05.414Z,-1.87
2023-02-09T23:15:33.167Z,-1.88
2023-02-09T23:18:00.588Z,-1.84
2023-02-09T23:20:28.205Z,-1.88
2023-02-09T23:22:56.554Z,-1.97
2023-02-09T23:25:24.488Z,-1.90
2023-02-09T23:27:53.388Z,-1.95
2023-02-09T23:30:22.066Z,-1.97
2023-02-09T23:32:49.487Z,-2.00
2023-02-09T23:35:17.642Z,-1.97
2023-02-09T23:37:44.909Z,-1.99
2023-02-09T23:40:12.638Z,-1.97
2023-02-09T23:42:39.779Z,-2.00
2023-02-09T23:45:08.065Z,-1.98
2023-02-09T23:47:36.797Z,-1.97
2023-02-09T23:50:04.450Z,-1.99
2023-02-09T23:52:31.751Z,-2.03
2023-02-09T23:54:59.314Z,-1.99
2023-02-09T23:57:26.564Z,-2.03
2023-02-09T23:59:54.272Z,-2.04
